createdAt,value
2019-02-08T00:05:05.600Z,7.64
2019-02-08T00:10:13.308Z,9.73
2019-02-08T00:15:20.944Z,10.68
2019-02-08T00:20:28.630Z,8.97
2019-02-08T00:25:36.260Z,10.53
2019-02-08T00:30:43.989Z,7.84
2019-02-08T00:35:51.633Z,9.57
2019-02-08T00:40:59.385Z,12.13
2019-02-08T00:46:07.040Z,6.24
2019-02-08T00:51:14.673Z,9.34
2019-02-08T00:56:22.331Z,11.22
2019-02-08T01:01:29.961Z,9.05
2019-02-08T01:06:37.652Z,9.07
2019-02-08T01:11:45.289Z,7.61
2019-02-08T01:16:52.941Z,8.35
2019-02-08T01:22:00.598Z,10.68
2019-02-08T01:27:08.253Z,9.62
2019-02-08T01:32:15.944Z,12.06
2019-02-08T01:37:23.969Z,11.61
2019-02-08T01:42:31.615Z,9.70
2019-02-08T01:47:39.236Z,8.03
2019-02-08T01:52:46.877Z,8.60
2019-02-08T01:57:54.556Z,8.48
2019-02-08T02:03:02.182Z,10.81
2019-02-08T02:08:09.825Z,9.81
2019-02-08T02:13:17.452Z,7.40
2019-02-08T02:18:25.100Z,8.43
2019-02-08T02:23:32.726Z,8.75
2019-02-08T02:28:40.467Z,8.91
2019-02-08T02:33:48.097Z,11.77
2019-02-08T02:38:55.739Z,10.11
2019-02-08T02:44:03.345Z,8.85
2019-02-08T02:49:11.025Z,10.90
2019-02-08T02:54:18.652Z,9.64
2019-02-08T02:59:26.338Z,12.29
2019-02-08T03:04:33.945Z,12.88
2019-02-08T03:09:41.611Z,15.72
2019-02-08T03:14:49.236Z,10.22
2019-02-08T03:19:56.876Z,10.81
2019-02-08T03:25:07.482Z,13.81
2019-02-08T03:30:05.169Z,14.69
2019-02-08T03:35:12.781Z,11.25
2019-02-08T03:40:20.444Z,13.59
2019-02-08T03:45:28.090Z,7.74
2019-02-08T03:50:35.740Z,10.31
2019-02-08T03:55:44.121Z,10.99
2019-02-08T04:00:50.809Z,14.39
2019-02-08T04:05:58.433Z,8.38
2019-02-08T04:11:06.124Z,16.49
2019-02-08T04:16:13.760Z,12.40
2019-02-08T04:21:21.429Z,11.82
2019-02-08T04:26:29.057Z,15.60
2019-02-08T04:31:36.772Z,15.13
2019-02-08T04:36:44.438Z,15.11
2019-02-08T04:41:52.080Z,15.87
2019-02-08T04:46:59.730Z,15.12
2019-02-08T04:52:07.505Z,16.40
2019-02-08T04:57:15.174Z,15.66
2019-02-08T05:02:22.920Z,14.92
2019-02-08T05:07:30.574Z,17.49
2019-02-08T05:12:38.286Z,14.49
2019-02-08T05:17:45.970Z,19.17
2019-02-08T05:22:53.681Z,23.61
2019-02-08T05:28:01.292Z,20.19
2019-02-08T05:33:08.986Z,21.01
2019-02-08T05:38:16.618Z,15.41
2019-02-08T05:43:24.307Z,18.60
2019-02-08T05:48:31.957Z,22.07
2019-02-08T05:53:39.614Z,23.10
2019-02-08T05:58:47.244Z,15.38
2019-02-08T06:03:54.910Z,21.73
2019-02-08T06:09:02.556Z,15.21
2019-02-08T06:14:10.328Z,21.57
2019-02-08T06:19:17.960Z,17.99
2019-02-08T06:24:32.732Z,21.62
2019-02-08T06:29:30.392Z,22.33
2019-02-08T06:34:38.099Z,15.10
2019-02-08T06:39:45.731Z,22.78
2019-02-08T06:44:53.382Z,24.68
2019-02-08T06:50:01.036Z,15.85
2019-02-08T06:55:10.903Z,18.38
2019-02-08T07:00:15.901Z,14.57
2019-02-08T07:05:23.593Z,20.45
2019-02-08T07:10:31.215Z,17.52
2019-02-08T07:15:39.128Z,20.24
2019-02-08T07:20:46.738Z,12.91
2019-02-08T07:25:54.423Z,16.65
2019-02-08T07:31:02.041Z,13.16
2019-02-08T07:36:09.697Z,16.99
2019-02-08T07:41:17.321Z,14.75
2019-02-08T07:46:24.961Z,13.57
2019-02-08T07:51:32.601Z,12.78
2019-02-08T07:56:40.240Z,15.68
2019-02-08T08:01:47.866Z,14.41
2019-02-08T08:06:55.522Z,13.75
2019-02-08T08:12:03.165Z,13.27
2019-02-08T08:17:10.840Z,9.10
2019-02-08T08:22:18.503Z,14.12
2019-02-08T08:27:26.173Z,13.65
2019-02-08T08:32:33.824Z,9.56
2019-02-08T08:37:41.614Z,14.46
2019-02-08T08:42:49.233Z,9.73
2019-02-08T08:47:56.926Z,11.93
2019-02-08T08:53:04.537Z,8.71
2019-02-08T08:58:12.207Z,9.93
2019-02-08T09:03:19.813Z,7.76
2019-02-08T09:08:27.491Z,12.05
2019-02-08T09:13:35.125Z,7.30
2019-02-08T09:18:42.816Z,11.59
2019-02-08T09:23:51.203Z,6.68
2019-02-08T09:28:58.866Z,7.89
2019-02-08T09:34:06.512Z,9.88
2019-02-08T09:39:14.223Z,10.20
2019-02-08T09:44:21.920Z,6.86
2019-02-08T09:49:32.842Z,9.72
2019-02-08T09:54:30.489Z,7.37
2019-02-08T09:59:38.134Z,8.12
2019-02-08T10:04:45.829Z,8.94
2019-02-08T10:09:53.528Z,7.01
2019-02-08T10:15:01.185Z,6.01
2019-02-08T10:20:08.797Z,8.81
2019-02-08T10:25:16.452Z,5.29
2019-02-08T10:30:24.064Z,7.41
2019-02-08T10:35:31.770Z,6.84
2019-02-08T10:40:39.421Z,5.09
2019-02-08T10:45:47.061Z,5.98
2019-02-08T10:50:54.712Z,3.51
2019-02-08T10:56:02.397Z,5.23
2019-02-08T11:01:10.009Z,4.75
2019-02-08T11:06:17.699Z,5.72
2019-02-08T11:11:25.294Z,2.84
2019-02-08T11:16:33.094Z,3.99
2019-02-08T11:21:40.713Z,3.10
2019-02-08T11:26:48.377Z,3.32
2019-02-08T11:31:56.024Z,3.15
2019-02-08T11:37:03.765Z,4.61
2019-02-08T11:42:11.390Z,5.76
2019-02-08T11:47:19.070Z,4.62
2019-02-08T11:52:26.796Z,5.41
2019-02-08T11:57:34.413Z,4.33
2019-02-08T12:02:42.066Z,5.97
2019-02-08T12:07:50.085Z,3.64
2019-02-08T12:12:57.726Z,4.79
2019-02-08T12:18:05.749Z,5.06
2019-02-08T12:23:13.385Z,5.39
2019-02-08T12:28:21.701Z,5.88
2019-02-08T12:33:29.385Z,4.90
2019-02-08T12:38:37.039Z,7.05
2019-02-08T12:43:44.663Z,8.99
2019-02-08T12:48:52.328Z,7.76
2019-02-08T12:54:00.021Z,5.71
2019-02-08T12:59:07.741Z,6.79
2019-02-08T13:04:19.508Z,7.15
2019-02-08T13:09:22.572Z,8.80
2019-02-08T13:14:30.213Z,7.33
2019-02-08T13:19:37.916Z,8.48
2019-02-08T13:24:45.550Z,8.39
2019-02-08T13:29:53.260Z,8.16
2019-02-08T13:35:01.040Z,7.88
2019-02-08T13:40:08.736Z,10.68
2019-02-08T13:45:16.348Z,6.58
2019-02-08T13:50:24.100Z,13.67
2019-02-08T13:55:31.752Z,7.24
2019-02-08T14:00:39.413Z,9.09
2019-02-08T14:05:47.052Z,8.44
2019-02-08T14:10:54.698Z,7.29
2019-02-08T14:16:02.334Z,9.60
2019-02-08T14:21:09.966Z,9.68
2019-02-08T14:26:17.632Z,7.83
2019-02-08T14:31:25.810Z,7.38
2019-02-08T14:36:33.464Z,7.94
2019-02-08T14:41:41.139Z,8.13
2019-02-08T14:46:48.844Z,9.35
2019-02-08T14:51:56.469Z,7.85
2019-02-08T14:57:04.118Z,8.94
2019-02-08T15:02:11.794Z,10.68
2019-02-08T15:07:19.441Z,11.04
2019-02-08T15:12:27.076Z,10.31
2019-02-08T15:17:34.989Z,6.76
2019-02-08T15:22:42.679Z,11.22
2019-02-08T15:27:50.313Z,7.84
2019-02-08T15:32:57.950Z,12.19
2019-02-08T15:38:05.572Z,9.35
2019-02-08T15:43:13.200Z,11.10
2019-02-08T15:48:20.861Z,9.79
2019-02-08T15:53:28.633Z,9.32
2019-02-08T15:58:36.273Z,5.89
2019-02-08T16:03:44.017Z,7.36
2019-02-08T16:08:51.657Z,7.37
2019-02-08T16:13:59.313Z,8.29
2019-02-08T16:19:09.973Z,4.86
2019-02-08T16:24:07.648Z,5.42
2019-02-08T16:29:15.265Z,4.12
2019-02-08T16:34:22.967Z,3.99
2019-02-08T16:39:30.627Z,5.35
2019-02-08T16:44:38.276Z,5.19
2019-02-08T16:49:45.918Z,6.97
2019-02-08T16:54:53.651Z,5.63
2019-02-08T17:00:01.249Z,5.88
2019-02-08T17:05:08.951Z,6.08
2019-02-08T17:10:16.601Z,7.64
2019-02-08T17:15:24.288Z,5.07
2019-02-08T17:20:31.939Z,5.69
2019-02-08T17:25:39.564Z,6.73
2019-02-08T17:30:47.294Z,6.31
2019-02-08T17:35:54.934Z,4.67
2019-02-08T17:41:02.625Z,5.51
2019-02-08T17:46:10.283Z,8.27
2019-02-08T17:51:18.029Z,7.90
2019-02-08T17:56:25.664Z,8.53
2019-02-08T18:01:33.384Z,6.32
2019-02-08T18:06:41.028Z,6.55
2019-02-08T18:11:49.529Z,7.26
2019-02-08T18:16:57.163Z,8.81
2019-02-08T18:22:04.858Z,6.03
2019-02-08T18:27:12.489Z,11.23
2019-02-08T18:32:20.160Z,6.67
2019-02-08T18:37:27.810Z,7.73
2019-02-08T18:42:35.470Z,7.37
2019-02-08T18:47:43.129Z,8.21
2019-02-08T18:52:51.001Z,4.86
2019-02-08T18:57:58.749Z,6.39
2019-02-08T19:03:06.515Z,5.51
2019-02-08T19:08:10.562Z,7.05
2019-02-08T19:13:18.401Z,5.91
2019-02-08T19:18:26.048Z,6.43
2019-02-08T19:23:33.869Z,8.21
2019-02-08T19:28:41.618Z,9.72
2019-02-08T19:33:49.427Z,8.31
2019-02-08T19:38:57.103Z,4.83
2019-02-08T19:40:12.691Z,5.77
2019-02-08T19:45:23.001Z,7.13
2019-02-08T19:50:20.645Z,9.03
2019-02-08T19:55:28.307Z,6.80
2019-02-08T20:00:36.529Z,9.07
2019-02-08T20:05:44.413Z,7.89
2019-02-08T20:10:52.334Z,5.25
2019-02-08T20:16:00.312Z,6.81
2019-02-08T20:21:08.297Z,6.40
2019-02-08T20:26:16.569Z,10.22
2019-02-08T20:31:24.508Z,7.13
2019-02-08T20:36:33.141Z,9.57
2019-02-08T20:41:40.895Z,8.57
2019-02-08T20:46:49.128Z,8.29
2019-02-08T20:51:57.058Z,6.82
2019-02-08T20:57:05.074Z,6.82
2019-02-08T21:02:12.989Z,6.77
2019-02-08T21:07:20.991Z,6.60
2019-02-08T21:12:28.963Z,8.96
2019-02-08T21:17:37.122Z,8.86
2019-02-08T21:22:46.150Z,6.32
2019-02-08T21:27:54.138Z,10.79
2019-02-08T21:33:02.079Z,7.40
2019-02-08T21:38:10.036Z,8.41
2019-02-08T21:43:17.970Z,6.85
2019-02-08T21:48:25.951Z,12.83
2019-02-08T21:53:33.729Z,14.05
2019-02-08T21:58:41.658Z,6.96
2019-02-08T22:03:49.595Z,11.62
2019-02-08T22:08:57.323Z,7.42
2019-02-08T22:14:04.970Z,11.77
2019-02-08T22:19:12.776Z,7.92
2019-02-08T22:24:20.537Z,12.54
2019-02-08T22:29:28.197Z,11.76
2019-02-08T22:34:35.968Z,10.78
2019-02-08T22:39:43.750Z,13.99
2019-02-08T22:44:51.244Z,10.08
2019-02-08T22:49:58.978Z,9.09
2019-02-08T22:55:06.611Z,11.07
2019-02-08T23:00:14.338Z,12.04
2019-02-08T23:05:21.990Z,13.01
2019-02-08T23:10:29.661Z,11.83
2019-02-08T23:15:37.185Z,8.11
2019-02-08T23:20:44.840Z,12.81
2019-02-08T23:25:52.559Z,9.83
2019-02-08T23:31:00.222Z,9.47
2019-02-08T23:36:07.890Z,8.54
2019-02-08T23:41:15.521Z,10.85
2019-02-08T23:46:23.242Z,7.23
2019-02-08T23:51:30.895Z,9.18
2019-02-08T23:56:38.634Z,6.55
